sensor_id;sensor_type;location;lat;lon;timestamp;P1;durP1;ratioP1;P2;durP2;ratioP2
1799;SDS011;919;48.274;12.292;2023-05-01T00:00:04;7.43;;;5.80;;
1799;SDS011;919;48.274;12.292;2023-05-01T00:02:33;5.40;;;4.90;;
1799;SDS011;919;48.274;12.292;2023-05-01T00:04:59;5.97;;;5.37;;
1799;SDS011;919;48.274;12.292;2023-05-01T00:07:26;4.80;;;4.30;;
1799;SDS011;919;48.274;12.292;2023-05-01T00:09:55;4.90;;;4.50;;
1799;SDS011;919;48.274;12.292;2023-05-01T00:12:22;5.60;;;5.00;;
1799;SDS011;919;48.274;12.292;2023-05-01T00:14:49;5.30;;;4.57;;
1799;SDS011;919;48.274;12.292;2023-05-01T00:17:16;4.80;;;4.40;;
1799;SDS011;919;48.274;12.292;2023-05-01T00:19:44;4.87;;;3.83;;
1799;SDS011;919;48.274;12.292;2023-05-01T00:22:11;7.17;;;4.80;;
1799;SDS011;919;48.274;12.292;2023-05-01T00:24:37;4.17;;;3.87;;
1799;SDS011;919;48.274;12.292;2023-05-01T00:27:04;5.63;;;5.13;;
1799;SDS011;919;48.274;12.292;2023-05-01T00:29:31;4.97;;;3.83;;
1799;SDS011;919;48.274;12.292;2023-05-01T00:31:58;4.40;;;4.00;;
1799;SDS011;919;48.274;12.292;2023-05-01T00:34:25;12.87;;;4.40;;
1799;SDS011;919;48.274;12.292;2023-05-01T00:36:53;4.80;;;4.30;;
1799;SDS011;919;48.274;12.292;2023-05-01T00:39:19;5.00;;;4.33;;
1799;SDS011;919;48.274;12.292;2023-05-01T00:41:46;5.60;;;4.17;;
1799;SDS011;919;48.274;12.292;2023-05-01T00:44:13;6.77;;;5.40;;
1799;SDS011;919;48.274;12.292;2023-05-01T00:46:40;5.60;;;5.10;;
1799;SDS011;919;48.274;12.292;2023-05-01T00:49:07;5.13;;;4.73;;
1799;SDS011;919;48.274;12.292;2023-05-01T00:51:34;6.57;;;5.97;;
1799;SDS011;919;48.274;12.292;2023-05-01T00:54:03;6.10;;;5.10;;
1799;SDS011;919;48.274;12.292;2023-05-01T00:56:31;6.20;;;5.70;;
1799;SDS011;919;48.274;12.292;2023-05-01T00:58:57;6.50;;;4.90;;
1799;SDS011;919;48.274;12.292;2023-05-01T01:01:25;6.07;;;5.53;;
1799;SDS011;919;48.274;12.292;2023-05-01T01:03:52;5.47;;;5.07;;
1799;SDS011;919;48.274;12.292;2023-05-01T01:06:20;5.27;;;4.87;;
1799;SDS011;919;48.274;12.292;2023-05-01T01:08:56;6.10;;;5.50;;
1799;SDS011;919;48.274;12.292;2023-05-01T01:11:35;5.03;;;4.60;;
1799;SDS011;919;48.274;12.292;2023-05-01T01:14:09;4.33;;;4.03;;
1799;SDS011;919;48.274;12.292;2023-05-01T01:16:43;5.53;;;4.23;;
1799;SDS011;919;48.274;12.292;2023-05-01T01:19:22;4.43;;;4.13;;
1799;SDS011;919;48.274;12.292;2023-05-01T01:22:09;5.27;;;4.20;;
1799;SDS011;919;48.274;12.292;2023-05-01T01:24:55;4.77;;;4.30;;
1799;SDS011;919;48.274;12.292;2023-05-01T01:27:39;4.93;;;4.53;;
1799;SDS011;919;48.274;12.292;2023-05-01T01:30:31;4.53;;;4.13;;
1799;SDS011;919;48.274;12.292;2023-05-01T01:36:18;5.17;;;4.70;;
1799;SDS011;919;48.274;12.292;2023-05-01T01:38:52;4.57;;;4.20;;
1799;SDS011;919;48.274;12.292;2023-05-01T01:41:25;4.90;;;4.40;;
1799;SDS011;919;48.274;12.292;2023-05-01T01:43:59;4.23;;;3.83;;
1799;SDS011;919;48.274;12.292;2023-05-01T01:46:29;4.67;;;4.27;;
1799;SDS011;919;48.274;12.292;2023-05-01T01:49:03;6.00;;;3.90;;
1799;SDS011;919;48.274;12.292;2023-05-01T01:51:35;4.40;;;4.00;;
1799;SDS011;919;48.274;12.292;2023-05-01T01:54:05;3.83;;;3.57;;
1799;SDS011;919;48.274;12.292;2023-05-01T01:56:34;4.00;;;3.70;;
1799;SDS011;919;48.274;12.292;2023-05-01T01:59:02;4.17;;;3.87;;
1799;SDS011;919;48.274;12.292;2023-05-01T02:01:31;4.87;;;4.37;;
1799;SDS011;919;48.274;12.292;2023-05-01T02:03:59;5.80;;;4.40;;
1799;SDS011;919;48.274;12.292;2023-05-01T02:06:28;5.47;;;4.73;;
1799;SDS011;919;48.274;12.292;2023-05-01T02:08:58;4.83;;;4.43;;
1799;SDS011;919;48.274;12.292;2023-05-01T02:11:26;6.70;;;6.10;;
1799;SDS011;919;48.274;12.292;2023-05-01T02:13:55;6.60;;;6.00;;
1799;SDS011;919;48.274;12.292;2023-05-01T02:16:22;5.57;;;4.97;;
1799;SDS011;919;48.274;12.292;2023-05-01T02:18:50;5.73;;;5.13;;
1799;SDS011;919;48.274;12.292;2023-05-01T02:21:18;6.50;;;5.90;;
1799;SDS011;919;48.274;12.292;2023-05-01T02:23:46;7.33;;;6.63;;
1799;SDS011;919;48.274;12.292;2023-05-01T02:26:15;6.60;;;5.43;;
1799;SDS011;919;48.274;12.292;2023-05-01T02:28:44;5.37;;;4.87;;
1799;SDS011;919;48.274;12.292;2023-05-01T02:31:11;4.87;;;4.47;;
1799;SDS011;919;48.274;12.292;2023-05-01T02:33:38;5.87;;;4.70;;
1799;SDS011;919;48.274;12.292;2023-05-01T02:36:05;4.37;;;3.97;;
1799;SDS011;919;48.274;12.292;2023-05-01T02:38:32;4.23;;;3.83;;
1799;SDS011;919;48.274;12.292;2023-05-01T02:40:59;4.47;;;4.10;;
1799;SDS011;919;48.274;12.292;2023-05-01T02:43:29;4.40;;;4.00;;
1799;SDS011;919;48.274;12.292;2023-05-01T02:45:57;4.27;;;3.87;;
1799;SDS011;919;48.274;12.292;2023-05-01T02:48:26;5.30;;;4.80;;
1799;SDS011;919;48.274;12.292;2023-05-01T02:50:54;4.77;;;4.37;;
1799;SDS011;919;48.274;12.292;2023-05-01T02:53:23;3.93;;;3.60;;
1799;SDS011;919;48.274;12.292;2023-05-01T02:55:49;3.90;;;3.60;;
1799;SDS011;919;48.274;12.292;2023-05-01T02:58:16;4.80;;;4.27;;
1799;SDS011;919;48.274;12.292;2023-05-01T03:00:47;5.60;;;5.07;;
1799;SDS011;919;48.274;12.292;2023-05-01T03:03:14;4.13;;;3.83;;
1799;SDS011;919;48.274;12.292;2023-05-01T03:05:41;5.10;;;3.90;;
1799;SDS011;919;48.274;12.292;2023-05-01T03:08:09;5.13;;;4.70;;
1799;SDS011;919;48.274;12.292;2023-05-01T03:10:38;4.57;;;4.17;;
1799;SDS011;919;48.274;12.292;2023-05-01T03:13:06;4.87;;;4.47;;
1799;SDS011;919;48.274;12.292;2023-05-01T03:15:34;5.13;;;4.60;;
1799;SDS011;919;48.274;12.292;2023-05-01T03:18:03;4.83;;;4.40;;
1799;SDS011;919;48.274;12.292;2023-05-01T03:20:29;4.07;;;3.67;;
1799;SDS011;919;48.274;12.292;2023-05-01T03:22:56;4.53;;;3.70;;
1799;SDS011;919;48.274;12.292;2023-05-01T03:25:23;4.40;;;4.00;;
1799;SDS011;919;48.274;12.292;2023-05-01T03:27:50;4.03;;;3.60;;
1799;SDS011;919;48.274;12.292;2023-05-01T03:30:16;4.10;;;3.70;;
1799;SDS011;919;48.274;12.292;2023-05-01T03:32:43;4.40;;;3.80;;
1799;SDS011;919;48.274;12.292;2023-05-01T03:35:11;4.10;;;3.70;;
1799;SDS011;919;48.274;12.292;2023-05-01T03:37:38;4.77;;;4.37;;
1799;SDS011;919;48.274;12.292;2023-05-01T03:40:05;6.13;;;5.47;;
1799;SDS011;919;48.274;12.292;2023-05-01T03:42:33;5.80;;;5.30;;
1799;SDS011;919;48.274;12.292;2023-05-01T03:44:59;6.00;;;5.40;;
1799;SDS011;919;48.274;12.292;2023-05-01T03:47:26;8.10;;;5.60;;
1799;SDS011;919;48.274;12.292;2023-05-01T03:49:53;5.13;;;4.73;;
1799;SDS011;919;48.274;12.292;2023-05-01T03:52:21;5.43;;;4.90;;
1799;SDS011;919;48.274;12.292;2023-05-01T03:54:48;5.33;;;4.90;;
1799;SDS011;919;48.274;12.292;2023-05-01T03:57:14;6.10;;;5.60;;
1799;SDS011;919;48.274;12.292;2023-05-01T03:59:41;7.37;;;6.67;;
1799;SDS011;919;48.274;12.292;2023-05-01T04:02:08;6.30;;;5.33;;
1799;SDS011;919;48.274;12.292;2023-05-01T04:04:35;6.33;;;5.73;;
1799;SDS011;919;48.274;12.292;2023-05-01T04:07:02;6.00;;;5.40;;
1799;SDS011;919;48.274;12.292;2023-05-01T04:09:30;6.33;;;5.70;;
1799;SDS011;919;48.274;12.292;2023-05-01T04:11:57;6.13;;;5.30;;
1799;SDS011;919;48.274;12.292;2023-05-01T04:14:23;6.30;;;5.70;;
1799;SDS011;919;48.274;12.292;2023-05-01T04:16:50;5.17;;;4.77;;
1799;SDS011;919;48.274;12.292;2023-05-01T04:19:17;5.47;;;4.73;;
1799;SDS011;919;48.274;12.292;2023-05-01T04:21:44;6.03;;;5.50;;
1799;SDS011;919;48.274;12.292;2023-05-01T04:24:11;5.30;;;4.80;;
1799;SDS011;919;48.274;12.292;2023-05-01T04:26:39;4.67;;;4.27;;
1799;SDS011;919;48.274;12.292;2023-05-01T04:29:06;5.50;;;4.13;;
1799;SDS011;919;48.274;12.292;2023-05-01T04:31:33;5.33;;;4.83;;
1799;SDS011;919;48.274;12.292;2023-05-01T04:34:00;5.03;;;4.53;;
1799;SDS011;919;48.274;12.292;2023-05-01T04:36:27;6.67;;;5.47;;
1799;SDS011;919;48.274;12.292;2023-05-01T04:38:56;4.90;;;4.20;;
1799;SDS011;919;48.274;12.292;2023-05-01T04:41:23;4.90;;;4.43;;
1799;SDS011;919;48.274;12.292;2023-05-01T04:43:51;5.23;;;4.73;;
1799;SDS011;919;48.274;12.292;2023-05-01T04:46:18;5.90;;;4.73;;
1799;SDS011;919;48.274;12.292;2023-05-01T04:48:44;6.40;;;4.23;;
1799;SDS011;919;48.274;12.292;2023-05-01T04:51:11;6.70;;;4.87;;
1799;SDS011;919;48.274;12.292;2023-05-01T04:53:38;5.53;;;4.80;;
1799;SDS011;919;48.274;12.292;2023-05-01T04:56:05;5.93;;;5.10;;
1799;SDS011;919;48.274;12.292;2023-05-01T04:58:32;4.73;;;4.33;;
1799;SDS011;919;48.274;12.292;2023-05-01T05:01:00;5.00;;;4.50;;
1799;SDS011;919;48.274;12.292;2023-05-01T05:03:26;5.27;;;4.77;;
1799;SDS011;919;48.274;12.292;2023-05-01T05:05:53;5.50;;;4.93;;
1799;SDS011;919;48.274;12.292;2023-05-01T05:08:20;5.60;;;5.10;;
1799;SDS011;919;48.274;12.292;2023-05-01T05:10:47;5.60;;;5.10;;
1799;SDS011;919;48.274;12.292;2023-05-01T05:13:13;6.50;;;5.67;;
1799;SDS011;919;48.274;12.292;2023-05-01T05:15:40;7.53;;;6.07;;
1799;SDS011;919;48.274;12.292;2023-05-01T05:18:09;5.50;;;5.00;;
1799;SDS011;919;48.274;12.292;2023-05-01T05:20:37;5.70;;;5.20;;
1799;SDS011;919;48.274;12.292;2023-05-01T05:23:03;5.60;;;5.10;;
1799;SDS011;919;48.274;12.292;2023-05-01T05:25:30;4.97;;;4.50;;
1799;SDS011;919;48.274;12.292;2023-05-01T05:27:57;5.20;;;4.70;;
1799;SDS011;919;48.274;12.292;2023-05-01T05:30:24;5.60;;;5.03;;
1799;SDS011;919;48.274;12.292;2023-05-01T05:32:51;5.57;;;4.60;;
1799;SDS011;919;48.274;12.292;2023-05-01T05:35:20;5.27;;;4.77;;
1799;SDS011;919;48.274;12.292;2023-05-01T05:37:47;7.77;;;5.67;;
1799;SDS011;919;48.274;12.292;2023-05-01T05:40:14;6.40;;;5.80;;
1799;SDS011;919;48.274;12.292;2023-05-01T05:42:41;9.10;;;6.97;;
1799;SDS011;919;48.274;12.292;2023-05-01T05:45:08;11.20;;;8.57;;
1799;SDS011;919;48.274;12.292;2023-05-01T05:47:35;8.97;;;7.63;;
1799;SDS011;919;48.274;12.292;2023-05-01T05:50:03;9.80;;;8.80;;
1799;SDS011;919;48.274;12.292;2023-05-01T05:52:31;8.27;;;7.50;;
1799;SDS011;919;48.274;12.292;2023-05-01T05:54:58;8.70;;;7.27;;
1799;SDS011;919;48.274;12.292;2023-05-01T05:57:25;8.37;;;7.30;;
1799;SDS011;919;48.274;12.292;2023-05-01T05:59:52;8.73;;;7.27;;
1799;SDS011;919;48.274;12.292;2023-05-01T06:02:18;8.63;;;7.20;;
1799;SDS011;919;48.274;12.292;2023-05-01T06:04:46;8.87;;;7.97;;
1799;SDS011;919;48.274;12.292;2023-05-01T06:07:12;9.37;;;7.80;;
1799;SDS011;919;48.274;12.292;2023-05-01T06:09:40;10.60;;;8.00;;
1799;SDS011;919;48.274;12.292;2023-05-01T06:12:07;13.67;;;7.90;;
1799;SDS011;919;48.274;12.292;2023-05-01T06:14:34;10.60;;;7.00;;
1799;SDS011;919;48.274;12.292;2023-05-01T06:17:00;8.40;;;7.10;;
1799;SDS011;919;48.274;12.292;2023-05-01T06:19:27;7.67;;;6.90;;
1799;SDS011;919;48.274;12.292;2023-05-01T06:21:54;7.53;;;6.80;;
1799;SDS011;919;48.274;12.292;2023-05-01T06:24:21;7.60;;;6.90;;
1799;SDS011;919;48.274;12.292;2023-05-01T06:26:49;7.93;;;7.13;;
1799;SDS011;919;48.274;12.292;2023-05-01T06:29:15;8.03;;;7.23;;
1799;SDS011;919;48.274;12.292;2023-05-01T06:31:42;7.87;;;6.60;;
1799;SDS011;919;48.274;12.292;2023-05-01T06:34:09;6.47;;;5.83;;
1799;SDS011;919;48.274;12.292;2023-05-01T06:36:37;7.50;;;6.63;;
1799;SDS011;919;48.274;12.292;2023-05-01T06:39:03;7.30;;;6.60;;
1799;SDS011;919;48.274;12.292;2023-05-01T06:41:30;7.63;;;6.03;;
1799;SDS011;919;48.274;12.292;2023-05-01T06:43:58;7.67;;;5.83;;
1799;SDS011;919;48.274;12.292;2023-05-01T06:46:25;6.93;;;6.23;;
1799;SDS011;919;48.274;12.292;2023-05-01T06:48:52;6.60;;;5.93;;
1799;SDS011;919;48.274;12.292;2023-05-01T06:51:19;7.70;;;6.90;;
1799;SDS011;919;48.274;12.292;2023-05-01T06:53:45;9.00;;;8.00;;
1799;SDS011;919;48.274;12.292;2023-05-01T06:56:12;7.73;;;6.63;;
1799;SDS011;919;48.274;12.292;2023-05-01T06:58:39;7.20;;;6.57;;
1799;SDS011;919;48.274;12.292;2023-05-01T07:01:07;10.30;;;6.90;;
1799;SDS011;919;48.274;12.292;2023-05-01T07:03:33;7.03;;;6.33;;
1799;SDS011;919;48.274;12.292;2023-05-01T07:06:00;10.67;;;9.60;;
1799;SDS011;919;48.274;12.292;2023-05-01T07:08:27;8.50;;;7.70;;
1799;SDS011;919;48.274;12.292;2023-05-01T07:10:54;6.37;;;5.83;;
1799;SDS011;919;48.274;12.292;2023-05-01T07:13:20;7.20;;;6.50;;
1799;SDS011;919;48.274;12.292;2023-05-01T07:15:47;12.00;;;6.57;;
1799;SDS011;919;48.274;12.292;2023-05-01T07:18:15;6.57;;;5.97;;
1799;SDS011;919;48.274;12.292;2023-05-01T07:20:42;6.37;;;5.60;;
1799;SDS011;919;48.274;12.292;2023-05-01T07:23:09;7.30;;;6.00;;
1799;SDS011;919;48.274;12.292;2023-05-01T07:25:35;8.50;;;5.93;;
1799;SDS011;919;48.274;12.292;2023-05-01T07:28:02;7.00;;;6.40;;
1799;SDS011;919;48.274;12.292;2023-05-01T07:30:29;6.00;;;5.40;;
1799;SDS011;919;48.274;12.292;2023-05-01T07:32:57;6.87;;;6.27;;
1799;SDS011;919;48.274;12.292;2023-05-01T07:35:25;8.40;;;7.07;;
1799;SDS011;919;48.274;12.292;2023-05-01T07:37:52;6.97;;;6.27;;
1799;SDS011;919;48.274;12.292;2023-05-01T07:40:19;7.00;;;6.30;;
1799;SDS011;919;48.274;12.292;2023-05-01T07:42:45;10.87;;;6.20;;
1799;SDS011;919;48.274;12.292;2023-05-01T07:45:12;6.47;;;5.77;;
1799;SDS011;919;48.274;12.292;2023-05-01T07:47:39;6.70;;;6.03;;
1799;SDS011;919;48.274;12.292;2023-05-01T07:50:08;6.27;;;5.67;;
1799;SDS011;919;48.274;12.292;2023-05-01T07:52:36;6.13;;;5.23;;
1799;SDS011;919;48.274;12.292;2023-05-01T07:55:03;7.77;;;6.97;;
1799;SDS011;919;48.274;12.292;2023-05-01T07:57:31;8.07;;;7.27;;
1799;SDS011;919;48.274;12.292;2023-05-01T07:59:58;6.17;;;5.67;;
1799;SDS011;919;48.274;12.292;2023-05-01T08:02:25;6.80;;;6.20;;
1799;SDS011;919;48.274;12.292;2023-05-01T08:04:51;7.00;;;6.40;;
1799;SDS011;919;48.274;12.292;2023-05-01T08:07:18;7.10;;;6.50;;
1799;SDS011;919;48.274;12.292;2023-05-01T08:09:46;6.40;;;5.80;;
1799;SDS011;919;48.274;12.292;2023-05-01T08:12:13;7.03;;;6.33;;
1799;SDS011;919;48.274;12.292;2023-05-01T08:14:39;6.93;;;6.23;;
1799;SDS011;919;48.274;12.292;2023-05-01T08:17:06;6.90;;;6.27;;
1799;SDS011;919;48.274;12.292;2023-05-01T08:19:33;8.03;;;6.07;;
1799;SDS011;919;48.274;12.292;2023-05-01T08:22:00;7.00;;;6.37;;
1799;SDS011;919;48.274;12.292;2023-05-01T08:24:26;6.60;;;6.00;;
1799;SDS011;919;48.274;12.292;2023-05-01T08:26:54;7.30;;;6.60;;
1799;SDS011;919;48.274;12.292;2023-05-01T08:29:22;6.47;;;5.90;;
1799;SDS011;919;48.274;12.292;2023-05-01T08:31:48;8.33;;;7.50;;
1799;SDS011;919;48.274;12.292;2023-05-01T08:34:15;7.60;;;6.80;;
1799;SDS011;919;48.274;12.292;2023-05-01T08:36:42;7.57;;;6.87;;
1799;SDS011;919;48.274;12.292;2023-05-01T08:39:10;8.33;;;6.10;;
1799;SDS011;919;48.274;12.292;2023-05-01T08:41:39;9.03;;;6.40;;
1799;SDS011;919;48.274;12.292;2023-05-01T08:44:11;11.03;;;7.60;;
1799;SDS011;919;48.274;12.292;2023-05-01T08:46:45;9.00;;;6.90;;
1799;SDS011;919;48.274;12.292;2023-05-01T08:49:14;7.70;;;6.90;;
1799;SDS011;919;48.274;12.292;2023-05-01T08:51:43;6.97;;;6.27;;
1799;SDS011;919;48.274;12.292;2023-05-01T08:54:12;5.90;;;5.40;;
1799;SDS011;919;48.274;12.292;2023-05-01T08:56:40;7.37;;;6.67;;
1799;SDS011;919;48.274;12.292;2023-05-01T08:59:12;8.00;;;7.13;;
1799;SDS011;919;48.274;12.292;2023-05-01T09:01:40;6.93;;;6.33;;
1799;SDS011;919;48.274;12.292;2023-05-01T09:04:07;6.47;;;5.87;;
1799;SDS011;919;48.274;12.292;2023-05-01T09:06:34;6.27;;;5.40;;
1799;SDS011;919;48.274;12.292;2023-05-01T09:09:01;7.80;;;6.07;;
1799;SDS011;919;48.274;12.292;2023-05-01T09:11:29;8.90;;;7.17;;
1799;SDS011;919;48.274;12.292;2023-05-01T09:13:56;6.17;;;5.57;;
1799;SDS011;919;48.274;12.292;2023-05-01T09:16:24;6.80;;;6.10;;
1799;SDS011;919;48.274;12.292;2023-05-01T09:18:51;7.13;;;6.23;;
1799;SDS011;919;48.274;12.292;2023-05-01T09:21:20;6.80;;;6.20;;
1799;SDS011;919;48.274;12.292;2023-05-01T09:23:53;6.77;;;6.10;;
1799;SDS011;919;48.274;12.292;2023-05-01T09:26:20;6.23;;;5.63;;
1799;SDS011;919;48.274;12.292;2023-05-01T09:28:47;7.70;;;6.90;;
1799;SDS011;919;48.274;12.292;2023-05-01T09:31:19;7.73;;;7.03;;
1799;SDS011;919;48.274;12.292;2023-05-01T09:33:51;7.20;;;6.17;;
1799;SDS011;919;48.274;12.292;2023-05-01T09:36:19;7.67;;;6.93;;
1799;SDS011;919;48.274;12.292;2023-05-01T09:38:47;6.80;;;6.10;;
1799;SDS011;919;48.274;12.292;2023-05-01T09:41:15;7.10;;;6.40;;
1799;SDS011;919;48.274;12.292;2023-05-01T09:43:44;7.73;;;7.00;;
1799;SDS011;919;48.274;12.292;2023-05-01T09:46:15;7.67;;;6.97;;
1799;SDS011;919;48.274;12.292;2023-05-01T09:48:52;7.50;;;6.90;;
1799;SDS011;919;48.274;12.292;2023-05-01T09:51:23;16.00;;;8.00;;
1799;SDS011;919;48.274;12.292;2023-05-01T09:53:52;9.83;;;7.20;;
1799;SDS011;919;48.274;12.292;2023-05-01T09:56:20;7.37;;;6.73;;
1799;SDS011;919;48.274;12.292;2023-05-01T09:58:48;7.80;;;6.70;;
1799;SDS011;919;48.274;12.292;2023-05-01T10:01:16;7.40;;;6.40;;
1799;SDS011;919;48.274;12.292;2023-05-01T10:04:03;7.47;;;6.33;;
1799;SDS011;919;48.274;12.292;2023-05-01T10:06:30;7.27;;;6.57;;
1799;SDS011;919;48.274;12.292;2023-05-01T10:08:57;7.40;;;6.70;;
1799;SDS011;919;48.274;12.292;2023-05-01T10:11:24;7.33;;;6.00;;
1799;SDS011;919;48.274;12.292;2023-05-01T10:14:04;7.50;;;6.80;;
1799;SDS011;919;48.274;12.292;2023-05-01T10:16:32;8.37;;;7.40;;
1799;SDS011;919;48.274;12.292;2023-05-01T10:19:00;7.50;;;6.90;;
1799;SDS011;919;48.274;12.292;2023-05-01T10:21:30;7.23;;;6.53;;
1799;SDS011;919;48.274;12.292;2023-05-01T10:23:58;7.37;;;6.63;;
1799;SDS011;919;48.274;12.292;2023-05-01T10:26:27;8.17;;;7.30;;
1799;SDS011;919;48.274;12.292;2023-05-01T10:28:54;8.17;;;7.00;;
1799;SDS011;919;48.274;12.292;2023-05-01T10:31:23;6.57;;;5.83;;
1799;SDS011;919;48.274;12.292;2023-05-01T10:33:52;6.63;;;6.13;;
1799;SDS011;919;48.274;12.292;2023-05-01T10:36:24;10.70;;;6.90;;
1799;SDS011;919;48.274;12.292;2023-05-01T10:38:52;7.63;;;6.93;;
1799;SDS011;919;48.274;12.292;2023-05-01T10:44:21;7.00;;;6.30;;
1799;SDS011;919;48.274;12.292;2023-05-01T10:46:49;6.70;;;6.10;;
1799;SDS011;919;48.274;12.292;2023-05-01T10:49:16;6.63;;;6.07;;
1799;SDS011;919;48.274;12.292;2023-05-01T10:52:00;6.60;;;6.00;;
1799;SDS011;919;48.274;12.292;2023-05-01T10:54:28;6.43;;;5.80;;
1799;SDS011;919;48.274;12.292;2023-05-01T10:56:55;7.20;;;6.53;;
1799;SDS011;919;48.274;12.292;2023-05-01T10:59:24;6.77;;;6.07;;
1799;SDS011;919;48.274;12.292;2023-05-01T11:01:51;7.00;;;6.30;;
1799;SDS011;919;48.274;12.292;2023-05-01T11:04:44;7.63;;;6.63;;
1799;SDS011;919;48.274;12.292;2023-05-01T11:07:19;7.30;;;6.60;;
1799;SDS011;919;48.274;12.292;2023-05-01T11:09:47;7.83;;;6.53;;
1799;SDS011;919;48.274;12.292;2023-05-01T11:18:01;7.90;;;7.13;;
1799;SDS011;919;48.274;12.292;2023-05-01T11:20:45;7.70;;;7.00;;
1799;SDS011;919;48.274;12.292;2023-05-01T11:23:20;8.07;;;6.70;;
1799;SDS011;919;48.274;12.292;2023-05-01T11:25:49;8.23;;;7.43;;
1799;SDS011;919;48.274;12.292;2023-05-01T11:28:27;9.00;;;8.10;;
1799;SDS011;919;48.274;12.292;2023-05-01T11:30:57;7.90;;;7.17;;
1799;SDS011;919;48.274;12.292;2023-05-01T11:33:24;8.53;;;7.73;;
1799;SDS011;919;48.274;12.292;2023-05-01T11:35:58;8.70;;;7.80;;
1799;SDS011;919;48.274;12.292;2023-05-01T11:38:26;7.57;;;6.57;;
1799;SDS011;919;48.274;12.292;2023-05-01T11:40:53;6.97;;;6.37;;
1799;SDS011;919;48.274;12.292;2023-05-01T11:43:22;9.03;;;7.03;;
1799;SDS011;919;48.274;12.292;2023-05-01T11:45:50;7.90;;;7.20;;
1799;SDS011;919;48.274;12.292;2023-05-01T11:48:19;8.33;;;7.53;;
1799;SDS011;919;48.274;12.292;2023-05-01T11:50:47;7.53;;;6.83;;
1799;SDS011;919;48.274;12.292;2023-05-01T11:53:14;8.40;;;7.37;;
1799;SDS011;919;48.274;12.292;2023-05-01T11:55:43;9.10;;;8.30;;
1799;SDS011;919;48.274;12.292;2023-05-01T11:58:10;9.60;;;8.70;;
1799;SDS011;919;48.274;12.292;2023-05-01T12:00:38;8.20;;;7.50;;
1799;SDS011;919;48.274;12.292;2023-05-01T12:03:06;8.30;;;7.60;;
1799;SDS011;919;48.274;12.292;2023-05-01T12:05:34;8.60;;;7.80;;
1799;SDS011;919;48.274;12.292;2023-05-01T12:08:09;7.70;;;7.00;;
1799;SDS011;919;48.274;12.292;2023-05-01T12:10:38;9.00;;;8.20;;
1799;SDS011;919;48.274;12.292;2023-05-01T12:13:07;9.47;;;8.50;;
1799;SDS011;919;48.274;12.292;2023-05-01T12:15:36;8.67;;;7.87;;
1799;SDS011;919;48.274;12.292;2023-05-01T12:18:04;8.83;;;8.03;;
1799;SDS011;919;48.274;12.292;2023-05-01T12:20:38;8.07;;;7.30;;
1799;SDS011;919;48.274;12.292;2023-05-01T12:23:06;8.67;;;7.87;;
1799;SDS011;919;48.274;12.292;2023-05-01T12:25:36;9.53;;;8.63;;
1799;SDS011;919;48.274;12.292;2023-05-01T12:28:09;8.90;;;8.00;;
1799;SDS011;919;48.274;12.292;2023-05-01T12:30:38;9.20;;;8.30;;
1799;SDS011;919;48.274;12.292;2023-05-01T12:33:11;9.43;;;8.53;;
1799;SDS011;919;48.274;12.292;2023-05-01T12:35:40;8.53;;;7.73;;
1799;SDS011;919;48.274;12.292;2023-05-01T12:38:09;9.10;;;8.30;;
1799;SDS011;919;48.274;12.292;2023-05-01T12:40:38;9.67;;;8.70;;
1799;SDS011;919;48.274;12.292;2023-05-01T12:43:05;8.87;;;8.07;;
1799;SDS011;919;48.274;12.292;2023-05-01T12:45:38;9.87;;;8.77;;
1799;SDS011;919;48.274;12.292;2023-05-01T12:48:09;9.80;;;8.40;;
1799;SDS011;919;48.274;12.292;2023-05-01T12:50:38;9.43;;;8.03;;
1799;SDS011;919;48.274;12.292;2023-05-01T12:53:06;9.13;;;8.10;;
1799;SDS011;919;48.274;12.292;2023-05-01T12:55:43;9.77;;;8.67;;
1799;SDS011;919;48.274;12.292;2023-05-01T12:58:11;9.80;;;8.90;;
1799;SDS011;919;48.274;12.292;2023-05-01T13:00:47;9.03;;;8.10;;
1799;SDS011;919;48.274;12.292;2023-05-01T13:03:16;7.77;;;7.07;;
1799;SDS011;919;48.274;12.292;2023-05-01T13:05:51;8.87;;;7.97;;
1799;SDS011;919;48.274;12.292;2023-05-01T13:08:26;9.10;;;8.20;;
1799;SDS011;919;48.274;12.292;2023-05-01T13:10:54;8.60;;;7.83;;
1799;SDS011;919;48.274;12.292;2023-05-01T13:13:23;8.67;;;7.80;;
1799;SDS011;919;48.274;12.292;2023-05-01T13:16:04;11.13;;;7.90;;
1799;SDS011;919;48.274;12.292;2023-05-01T13:18:41;9.47;;;8.17;;
1799;SDS011;919;48.274;12.292;2023-05-01T13:21:09;8.90;;;8.10;;
1799;SDS011;919;48.274;12.292;2023-05-01T13:23:37;8.87;;;8.00;;
1799;SDS011;919;48.274;12.292;2023-05-01T13:26:05;9.30;;;8.40;;
1799;SDS011;919;48.274;12.292;2023-05-01T13:28:33;9.10;;;7.93;;
1799;SDS011;919;48.274;12.292;2023-05-01T13:31:00;8.87;;;8.10;;
1799;SDS011;919;48.274;12.292;2023-05-01T13:33:28;10.50;;;9.50;;
1799;SDS011;919;48.274;12.292;2023-05-01T13:35:57;9.30;;;7.97;;
1799;SDS011;919;48.274;12.292;2023-05-01T13:38:24;9.30;;;8.50;;
1799;SDS011;919;48.274;12.292;2023-05-01T13:40:51;9.50;;;8.20;;
1799;SDS011;919;48.274;12.292;2023-05-01T13:43:18;9.97;;;9.13;;
1799;SDS011;919;48.274;12.292;2023-05-01T13:45:46;8.87;;;8.10;;
1799;SDS011;919;48.274;12.292;2023-05-01T13:48:14;9.63;;;8.40;;
1799;SDS011;919;48.274;12.292;2023-05-01T13:50:51;9.10;;;8.30;;
1799;SDS011;919;48.274;12.292;2023-05-01T13:53:18;8.00;;;7.23;;
1799;SDS011;919;48.274;12.292;2023-05-01T13:55:45;8.20;;;7.33;;
1799;SDS011;919;48.274;12.292;2023-05-01T13:58:12;9.20;;;7.27;;
1799;SDS011;919;48.274;12.292;2023-05-01T14:00:38;7.70;;;6.93;;
1799;SDS011;919;48.274;12.292;2023-05-01T14:03:05;8.60;;;7.80;;
1799;SDS011;919;48.274;12.292;2023-05-01T14:05:35;8.60;;;7.67;;
1799;SDS011;919;48.274;12.292;2023-05-01T14:08:07;7.60;;;6.80;;
1799;SDS011;919;48.274;12.292;2023-05-01T14:10:34;7.50;;;6.80;;
1799;SDS011;919;48.274;12.292;2023-05-01T14:13:01;7.53;;;6.83;;
1799;SDS011;919;48.274;12.292;2023-05-01T14:15:29;7.70;;;7.00;;
1799;SDS011;919;48.274;12.292;2023-05-01T14:18:02;7.33;;;6.63;;
1799;SDS011;919;48.274;12.292;2023-05-01T14:20:30;7.80;;;7.10;;
1799;SDS011;919;48.274;12.292;2023-05-01T14:22:57;10.00;;;7.90;;
1799;SDS011;919;48.274;12.292;2023-05-01T14:25:26;8.67;;;7.83;;
1799;SDS011;919;48.274;12.292;2023-05-01T14:27:55;8.40;;;7.70;;
1799;SDS011;919;48.274;12.292;2023-05-01T14:30:25;9.13;;;8.20;;
1799;SDS011;919;48.274;12.292;2023-05-01T14:32:53;7.87;;;7.17;;
1799;SDS011;919;48.274;12.292;2023-05-01T14:35:21;8.60;;;7.80;;
1799;SDS011;919;48.274;12.292;2023-05-01T14:37:49;8.37;;;7.67;;
1799;SDS011;919;48.274;12.292;2023-05-01T14:40:20;8.53;;;6.73;;
1799;SDS011;919;48.274;12.292;2023-05-01T14:42:52;8.17;;;7.37;;
1799;SDS011;919;48.274;12.292;2023-05-01T14:45:19;7.53;;;6.57;;
1799;SDS011;919;48.274;12.292;2023-05-01T14:47:47;8.53;;;7.70;;
1799;SDS011;919;48.274;12.292;2023-05-01T14:50:17;9.03;;;8.17;;
1799;SDS011;919;48.274;12.292;2023-05-01T14:52:45;9.80;;;8.00;;
1799;SDS011;919;48.274;12.292;2023-05-01T14:55:12;9.20;;;8.20;;
1799;SDS011;919;48.274;12.292;2023-05-01T14:57:44;8.07;;;7.27;;
1799;SDS011;919;48.274;12.292;2023-05-01T15:00:13;9.43;;;8.50;;
1799;SDS011;919;48.274;12.292;2023-05-01T15:02:40;9.00;;;8.10;;
1799;SDS011;919;48.274;12.292;2023-05-01T15:05:07;8.87;;;7.87;;
1799;SDS011;919;48.274;12.292;2023-05-01T15:07:34;7.90;;;7.20;;
1799;SDS011;919;48.274;12.292;2023-05-01T15:10:01;10.10;;;9.10;;
1799;SDS011;919;48.274;12.292;2023-05-01T15:12:28;8.60;;;7.80;;
1799;SDS011;919;48.274;12.292;2023-05-01T15:14:56;8.97;;;7.07;;
1799;SDS011;919;48.274;12.292;2023-05-01T15:17:23;9.10;;;8.20;;
1799;SDS011;919;48.274;12.292;2023-05-01T15:19:50;9.77;;;8.87;;
1799;SDS011;919;48.274;12.292;2023-05-01T15:22:17;7.37;;;6.67;;
1799;SDS011;919;48.274;12.292;2023-05-01T15:24:44;7.80;;;6.80;;
1799;SDS011;919;48.274;12.292;2023-05-01T15:27:11;9.67;;;8.67;;
1799;SDS011;919;48.274;12.292;2023-05-01T15:29:37;8.13;;;7.33;;
1799;SDS011;919;48.274;12.292;2023-05-01T15:32:05;10.27;;;7.87;;
1799;SDS011;919;48.274;12.292;2023-05-01T15:34:33;9.67;;;8.10;;